Thunder radar more information blitzortung!


Radar de pluja more information rain snow radar


Visita la nostra xarxa de llocs de meteo:

Template documentation
and downloads

And another site



No particular awareness of the weather is required.    There are no Weather-warnings

Pagina Historial Weather Underground text

Diari Resum February 9, 2016 Unitats:  Mètric    Imperial   Tant
« Previous Dia
SegĂźent Dia »
Diari Setmana Mensual Anual Personalitzada
  Maxima: Minima: Media:
Temperatura: 17.6 °C 14.9 °C 16.8 °C
Punt de rosada: 7.2 °C 3.4 °C 5.3 °C
Humitat: 53 % 43 % 47 %
Wind Speed: 25.9 km/h 3.7 km/h 14.3 km/h
RĂ fegues de vent: 25.9 km/h - -
Vent:- - WSW
Pression baro: 1013.8 hPa 992.8 hPa -
Precipitacions: 0.0 mm    
Historical Graphs
 
 
Dades de taula per February 9, 2016
Temps Temperatura Punt de rosada Pression baro Vent Wind Speed RĂ fegues de vent Humitat Rainfall Rate (Hourly)
11:45 16.3 °C 6.7 °C 993.8 hPa West 16.7 km/h 16.7 km/h 53 % 0.0 mm
11:50 16.4 °C 6.8 °C 992.8 hPa WSW 16.7 km/h 16.7 km/h 53 % 0.0 mm
11:55 16.6 °C 7.0 °C 992.8 hPa WNW 18.5 km/h 18.5 km/h 53 % 0.0 mm
12:00 16.5 °C 6.6 °C 1013.8 hPa NNW 16.7 km/h 16.7 km/h 52 % 0.0 mm
12:05 16.6 °C 6.7 °C 1013.8 hPa WSW 13.0 km/h 13.0 km/h 52 % 0.0 mm
12:10 16.6 °C 6.7 °C 1013.8 hPa WSW 14.8 km/h 14.8 km/h 52 % 0.0 mm
12:15 16.5 °C 6.6 °C 1013.8 hPa West 22.2 km/h 22.2 km/h 52 % 0.0 mm
12:20 16.7 °C 6.8 °C 1012.8 hPa West 16.4 km/h 16.4 km/h 52 % 0.0 mm
12:25 16.7 °C 6.8 °C 1012.8 hPa West 18.5 km/h 18.5 km/h 52 % 0.0 mm
12:30 16.8 °C 6.9 °C 1012.8 hPa SW 16.7 km/h 16.7 km/h 52 % 0.0 mm
12:35 17.0 °C 6.8 °C 1013.8 hPa WSW 16.7 km/h 16.7 km/h 51 % 0.0 mm
12:40 17.1 °C 6.6 °C 1013.8 hPa West 16.7 km/h 16.7 km/h 50 % 0.0 mm
12:45 17.2 °C 6.7 °C 1013.8 hPa WNW 9.3 km/h 9.3 km/h 50 % 0.0 mm
12:50 17.4 °C 7.2 °C 1013.8 hPa WSW 9.3 km/h 9.3 km/h 51 % 0.0 mm
12:55 17.5 °C 6.9 °C 1013.8 hPa WNW 14.8 km/h 14.8 km/h 50 % 0.0 mm
13:00 17.6 °C 7.1 °C 1013.8 hPa East 9.3 km/h 9.3 km/h 50 % 0.0 mm
13:05 17.5 °C 6.9 °C 1013.8 hPa NE 14.8 km/h 14.8 km/h 50 % 0.0 mm
13:10 17.3 °C 6.5 °C 1013.8 hPa West 16.7 km/h 16.7 km/h 49 % 0.0 mm
13:15 17.0 °C 6.2 °C 1013.8 hPa SW 18.5 km/h 18.5 km/h 49 % 0.0 mm
13:20 17.0 °C 6.2 °C 1012.8 hPa WSW 22.2 km/h 22.2 km/h 49 % 0.0 mm
13:25 17.1 °C 6.3 °C 1012.8 hPa WSW 14.8 km/h 14.8 km/h 49 % 0.0 mm
13:30 17.1 °C 6.3 °C 1012.8 hPa West 14.8 km/h 14.8 km/h 49 % 0.0 mm
13:35 17.1 °C 6.3 °C 1011.7 hPa West 13.0 km/h 13.0 km/h 49 % 0.0 mm
13:40 17.1 °C 6.3 °C 1011.7 hPa SW 14.8 km/h 14.8 km/h 49 % 0.0 mm
13:45 17.0 °C 6.2 °C 1011.7 hPa SW 24.1 km/h 24.1 km/h 49 % 0.0 mm
13:50 17.0 °C 6.2 °C 1010.7 hPa West 18.5 km/h 18.5 km/h 49 % 0.0 mm
13:55 16.9 °C 6.4 °C 1010.7 hPa West 20.1 km/h 20.1 km/h 50 % 0.0 mm
14:00 16.9 °C 6.4 °C 1010.7 hPa East 22.2 km/h 22.2 km/h 50 % 0.0 mm
14:05 17.0 °C 6.2 °C 1011.7 hPa WSW 11.1 km/h 11.1 km/h 49 % 0.0 mm
14:10 17.0 °C 6.2 °C 1011.7 hPa SSW 14.8 km/h 14.8 km/h 49 % 0.0 mm
14:15 17.1 °C 6.3 °C 1011.7 hPa WSW 24.1 km/h 24.1 km/h 49 % 0.0 mm
14:25 17.3 °C 6.5 °C 1010.0 hPa WSW 13.0 km/h 13.0 km/h 49 % 0.0 mm
14:30 17.5 °C 6.3 °C 1010.0 hPa SSW 24.8 km/h 24.8 km/h 48 % 0.0 mm
14:35 17.5 °C 6.1 °C 1010.0 hPa WSW 19.0 km/h 19.0 km/h 47 % 0.0 mm
14:40 17.4 °C 5.9 °C 1010.0 hPa WSW 13.0 km/h 13.0 km/h 47 % 0.0 mm
14:45 17.4 °C 5.9 °C 1010.0 hPa WNW 24.1 km/h 24.1 km/h 47 % 0.0 mm
14:50 17.5 °C 5.7 °C 1010.0 hPa SSE 14.8 km/h 14.8 km/h 46 % 0.0 mm
14:55 17.5 °C 5.7 °C 1010.0 hPa West 16.7 km/h 16.7 km/h 46 % 0.0 mm
15:00 17.4 °C 5.7 °C 1010.0 hPa WSW 18.5 km/h 18.5 km/h 46 % 0.0 mm
15:05 17.4 °C 5.7 °C 1009.0 hPa West 13.0 km/h 13.0 km/h 46 % 0.0 mm
15:10 17.5 °C 5.4 °C 1009.0 hPa NW 14.8 km/h 14.8 km/h 45 % 0.0 mm
15:15 17.4 °C 5.0 °C 1009.0 hPa West 16.7 km/h 16.7 km/h 44 % 0.0 mm
15:20 17.2 °C 4.8 °C 1008.0 hPa WSW 24.1 km/h 24.1 km/h 44 % 0.0 mm
15:25 17.2 °C 4.8 °C 1008.0 hPa WSW 14.8 km/h 14.8 km/h 44 % 0.0 mm
15:30 17.1 °C 4.7 °C 1008.0 hPa WSW 9.3 km/h 9.3 km/h 44 % 0.0 mm
15:35 17.2 °C 4.8 °C 1008.0 hPa WSW 11.1 km/h 11.1 km/h 44 % 0.0 mm
15:40 17.2 °C 4.8 °C 1008.0 hPa West 16.7 km/h 16.7 km/h 44 % 0.0 mm
15:45 17.2 °C 4.8 °C 1008.0 hPa WSW 24.1 km/h 24.1 km/h 44 % 0.0 mm
15:50 17.2 °C 4.8 °C 1008.0 hPa WSW 16.7 km/h 16.7 km/h 44 % 0.0 mm
15:55 17.2 °C 4.8 °C 1008.0 hPa West 24.1 km/h 24.1 km/h 44 % 0.0 mm
16:00 17.2 °C 4.8 °C 1008.0 hPa SW 14.8 km/h 14.8 km/h 44 % 0.0 mm
16:05 17.2 °C 4.8 °C 1008.0 hPa WSW 9.3 km/h 9.3 km/h 44 % 0.0 mm
16:10 17.3 °C 4.9 °C 1008.0 hPa WSW 14.8 km/h 14.8 km/h 44 % 0.0 mm
16:15 17.3 °C 4.9 °C 1008.0 hPa WSW 16.7 km/h 16.7 km/h 44 % 0.0 mm
16:20 17.4 °C 5.0 °C 1008.0 hPa West 9.7 km/h 9.7 km/h 44 % 0.0 mm
16:25 17.4 °C 4.7 °C 1008.0 hPa West 13.0 km/h 13.0 km/h 43 % 0.0 mm
16:30 17.3 °C 4.6 °C 1008.0 hPa WSW 22.2 km/h 22.2 km/h 43 % 0.0 mm
16:35 17.3 °C 4.6 °C 1008.0 hPa South 16.7 km/h 16.7 km/h 43 % 0.0 mm
16:40 17.3 °C 4.6 °C 1008.0 hPa WSW 9.3 km/h 9.3 km/h 43 % 0.0 mm
16:45 17.3 °C 4.6 °C 1008.0 hPa SSW 20.4 km/h 20.4 km/h 43 % 0.0 mm
16:50 17.3 °C 4.6 °C 1007.0 hPa SW 18.5 km/h 18.5 km/h 43 % 0.0 mm
16:55 17.3 °C 4.6 °C 1007.0 hPa WSW 20.4 km/h 20.4 km/h 43 % 0.0 mm
17:00 17.4 °C 4.7 °C 1007.0 hPa West 13.0 km/h 13.0 km/h 43 % 0.0 mm
17:05 17.3 °C 4.6 °C 1007.0 hPa West 12.2 km/h 12.2 km/h 43 % 0.0 mm
17:10 17.3 °C 4.6 °C 1007.0 hPa WSW 11.1 km/h 11.1 km/h 43 % 0.0 mm
17:20 17.3 °C 4.6 °C 1007.0 hPa WSW 7.4 km/h 7.4 km/h 43 % 0.0 mm
17:25 17.3 °C 4.6 °C 1007.0 hPa SW 9.3 km/h 9.3 km/h 43 % 0.0 mm
17:30 17.3 °C 4.6 °C 1007.0 hPa WSW 4.7 km/h 6.4 km/h 43 % 0.0 mm
17:35 17.2 °C 4.5 °C 1006.0 hPa WSW 16.7 km/h 16.7 km/h 43 % 0.0 mm
17:40 17.3 °C 4.6 °C 1006.0 hPa WSW 20.4 km/h 20.4 km/h 43 % 0.0 mm
17:45 17.2 °C 4.5 °C 1006.0 hPa WSW 9.7 km/h 10.8 km/h 43 % 0.0 mm
17:50 17.2 °C 4.5 °C 1006.0 hPa SSW 17.5 km/h 17.5 km/h 43 % 0.0 mm
17:55 17.1 °C 4.7 °C 1006.0 hPa SSW 11.9 km/h 11.9 km/h 44 % 0.0 mm
18:00 17.1 °C 4.7 °C 1006.0 hPa WSW 13.0 km/h 13.0 km/h 44 % 0.0 mm
18:05 17.0 °C 4.7 °C 1006.0 hPa WNW 13.0 km/h 13.0 km/h 44 % 0.0 mm
18:10 17.0 °C 4.7 °C 1006.0 hPa SW 11.1 km/h 11.1 km/h 44 % 0.0 mm
18:15 16.9 °C 4.9 °C 1006.0 hPa South 11.1 km/h 11.1 km/h 45 % 0.0 mm
18:25 16.8 °C 4.8 °C 1006.0 hPa WSW 11.1 km/h 11.1 km/h 45 % 0.0 mm
18:30 16.6 °C 4.9 °C 1006.0 hPa SW 13.0 km/h 13.0 km/h 46 % 0.0 mm
18:35 16.2 °C 4.9 °C 1006.0 hPa SW 9.3 km/h 9.3 km/h 47 % 0.0 mm
18:40 15.9 °C 4.6 °C 1006.0 hPa WSW 5.6 km/h 5.6 km/h 47 % 0.0 mm
18:45 16.2 °C 4.9 °C 1006.0 hPa WSW 9.3 km/h 9.3 km/h 47 % 0.0 mm
18:50 16.6 °C 5.2 °C 1006.0 hPa WSW 17.2 km/h 17.2 km/h 47 % 0.0 mm
18:55 16.9 °C 5.5 °C 1006.0 hPa SW 9.3 km/h 9.3 km/h 47 % 0.0 mm
19:00 17.0 °C 4.9 °C 1006.0 hPa WSW 13.0 km/h 13.0 km/h 45 % 0.0 mm
19:05 17.2 °C 5.2 °C 1006.0 hPa WSW 24.1 km/h 24.1 km/h 45 % 0.0 mm
19:10 17.2 °C 5.2 °C 1006.0 hPa WSW 16.7 km/h 16.7 km/h 45 % 0.0 mm
19:15 17.3 °C 5.2 °C 1006.0 hPa WSW 11.1 km/h 11.1 km/h 45 % 0.0 mm
19:20 17.3 °C 5.2 °C 1006.0 hPa West 18.3 km/h 18.3 km/h 45 % 0.0 mm
19:30 17.4 °C 5.3 °C 1006.0 hPa WSW 13.0 km/h 13.0 km/h 45 % 0.0 mm
19:35 17.4 °C 5.3 °C 1006.0 hPa West 13.0 km/h 13.0 km/h 45 % 0.0 mm
19:40 17.3 °C 5.2 °C 1006.0 hPa West 25.9 km/h 25.9 km/h 45 % 0.0 mm
19:45 17.3 °C 5.2 °C 1006.0 hPa WSW 13.0 km/h 13.0 km/h 45 % 0.0 mm
19:50 17.3 °C 5.6 °C 1006.0 hPa SW 20.4 km/h 20.4 km/h 46 % 0.0 mm
19:55 17.1 °C 5.4 °C 1006.0 hPa WSW 15.8 km/h 15.8 km/h 46 % 0.0 mm
20:00 17.1 °C 5.7 °C 1006.0 hPa WSW 7.4 km/h 7.4 km/h 47 % 0.0 mm
20:05 17.1 °C 5.7 °C 1006.0 hPa WSW 16.7 km/h 16.7 km/h 47 % 0.0 mm
20:10 17.0 °C 5.6 °C 1006.0 hPa WSW 3.7 km/h 3.9 km/h 47 % 0.0 mm
20:15 16.9 °C 5.8 °C 1006.0 hPa WSW 9.3 km/h 9.3 km/h 48 % 0.0 mm
20:20 16.9 °C 5.8 °C 1006.0 hPa WSW 5.6 km/h 5.6 km/h 48 % 0.0 mm
20:25 16.8 °C 5.7 °C 1006.0 hPa West 13.0 km/h 13.0 km/h 48 % 0.0 mm
20:30 16.8 °C 5.7 °C 1006.0 hPa WNW 12.6 km/h 12.6 km/h 48 % 0.0 mm
20:35 16.9 °C 5.8 °C 1006.0 hPa SW 14.8 km/h 14.8 km/h 48 % 0.0 mm
20:40 17.1 °C 5.4 °C 1006.0 hPa WSW 20.4 km/h 20.4 km/h 46 % 0.0 mm
20:45 17.2 °C 5.4 °C 1006.0 hPa WSW 13.0 km/h 13.0 km/h 46 % 0.0 mm
20:50 17.1 °C 5.4 °C 1007.0 hPa SW 10.8 km/h 10.8 km/h 46 % 0.0 mm
20:55 17.2 °C 5.4 °C 1007.0 hPa West 7.4 km/h 7.4 km/h 46 % 0.0 mm
21:05 17.1 °C 5.4 °C 1006.0 hPa NNW 5.6 km/h 11.4 km/h 46 % 0.0 mm
21:10 17.1 °C 5.4 °C 1006.0 hPa SW 11.1 km/h 11.1 km/h 46 % 0.0 mm
21:15 17.1 °C 5.4 °C 1006.0 hPa SSW 7.4 km/h 7.4 km/h 46 % 0.0 mm
21:20 17.1 °C 5.4 °C 1006.0 hPa South 7.4 km/h 7.4 km/h 46 % 0.0 mm
21:25 17.1 °C 5.4 °C 1006.0 hPa WNW 9.3 km/h 9.3 km/h 46 % 0.0 mm
21:30 17.1 °C 5.4 °C 1006.0 hPa WNW 11.1 km/h 11.1 km/h 46 % 0.0 mm
21:35 16.8 °C 5.7 °C 1007.0 hPa WSW 9.0 km/h 9.0 km/h 48 % 0.0 mm
21:40 16.4 °C 5.7 °C 1007.0 hPa SW 7.4 km/h 7.4 km/h 49 % 0.0 mm
21:45 16.1 °C 5.7 °C 1007.0 hPa WSW 13.0 km/h 13.7 km/h 50 % 0.0 mm
21:55 15.6 °C 5.5 °C 1007.0 hPa WSW 7.4 km/h 10.3 km/h 51 % 0.0 mm
22:00 15.4 °C 5.3 °C 1007.0 hPa WSW 24.1 km/h 24.1 km/h 51 % 0.0 mm
22:05 15.4 °C 5.3 °C 1007.0 hPa SW 18.5 km/h 18.5 km/h 51 % 0.0 mm
22:10 15.3 °C 4.9 °C 1007.0 hPa WSW 15.8 km/h 15.8 km/h 50 % 0.0 mm
22:15 15.2 °C 4.8 °C 1007.0 hPa West 9.3 km/h 10.0 km/h 50 % 0.0 mm
22:20 15.3 °C 4.6 °C 1007.0 hPa WSW 13.0 km/h 13.0 km/h 49 % 0.0 mm
22:25 15.2 °C 4.3 °C 1007.0 hPa West 13.0 km/h 13.0 km/h 48 % 0.0 mm
22:30 15.2 °C 4.3 °C 1007.0 hPa West 9.3 km/h 9.3 km/h 48 % 0.0 mm
22:35 15.2 °C 3.9 °C 1007.0 hPa WSW 13.0 km/h 13.0 km/h 47 % 0.0 mm
22:40 15.2 °C 3.9 °C 1007.0 hPa West 14.8 km/h 14.8 km/h 47 % 0.0 mm
22:45 15.1 °C 3.8 °C 1007.0 hPa WSW 5.6 km/h 7.6 km/h 47 % 0.0 mm
22:50 15.1 °C 3.8 °C 1007.0 hPa WSW 13.0 km/h 13.0 km/h 47 % 0.0 mm
22:55 15.0 °C 3.8 °C 1007.0 hPa SW 12.6 km/h 12.6 km/h 47 % 0.0 mm
23:00 15.0 °C 3.4 °C 1007.0 hPa WSW 14.0 km/h 14.0 km/h 46 % 0.0 mm
23:05 15.0 °C 3.4 °C 1008.0 hPa West 15.8 km/h 15.8 km/h 46 % 0.0 mm
23:10 15.0 °C 3.4 °C 1008.0 hPa SW 10.0 km/h 10.0 km/h 46 % 0.0 mm
23:15 14.9 °C 3.4 °C 1008.0 hPa WSW 9.5 km/h 9.5 km/h 46 % 0.0 mm
23:20 14.9 °C 3.4 °C 1006.0 hPa SSE 14.8 km/h 14.8 km/h 46 % 0.0 mm
Meteo Sesrovires
Elogis d' Weather Underground - 3.25 mb

Guio original per  Jim McMurry - jmcmurry@mwt.net Adaptat per a la plantilla per  Wim van der Kuil - Leuven-Template.eu

Trobareu la nostra informacio del temps tambe a:

Weather Underground

AWEKAS